Latest Weather Observations for Tindal

IDD60801

Issued at 4:31 pm CST Saturday 30 July 2016 (issued every 30 minutes, with the page automatically refreshed every 10 minutes)

About weather observations | Map of weather stations | Latest weather observations for NT | Other Formats
Station Details ID: 014932 Name: TINDAL RAAF Lat: -14.52 Lon: 132.38 Height: 133.6 m
Data from the previous 72 hours. | See also: Recent months at Tindal
Date/Time
CST
Temp
°C
App
Temp
°C
Dew
Point
°C
Rel
Hum
%
Delta-T
°C
Wind Press
QNH
hPa
Press
MSL
hPa
Rain since
9am
mm
Dir  Spd
km/h
Gust
km/h
Spd
kts
Gust
kts
30/04:30pm 31.2 24.9 -4.0 10 15.9 SE 20 30 11 16 1011.6 1011.1 0.0
30/04:00pm 31.4 25.7 -3.8 10 16.0 ESE 17 26 9 14 1011.6 1011.1 0.0
30/03:30pm 30.8 25.0 -4.3 10 15.8 ESE 17 30 9 16 1012.0 1011.5 0.0
30/03:00pm 31.1 25.7 -1.6 12 15.4 SSE 17 32 9 17 1012.3 1011.8 0.0
30/02:30pm 30.7 25.4 -0.8 13 15.0 ESE 17 24 9 13 1012.8 1012.3 0.0
30/02:00pm 30.6 25.4 0.1 14 14.7 ESE 17 28 9 15 1013.3 1012.8 0.0
30/01:30pm 29.9 24.0 -0.5 14 14.5 ESE 20 32 11 17 1013.9 1013.4 0.0
30/01:00pm 28.9 22.6 1.4 17 13.4 ESE 24 35 13 19 1014.7 1014.2 0.0
30/12:30pm 28.8 23.1 2.9 19 13.0 ESE 22 33 12 18 1015.2 1014.7 0.0
30/12:00pm 27.6 22.3 5.2 24 11.6 E 22 33 12 18 1015.8 1015.2 0.0
30/11:30am 27.2 20.7 4.9 24 11.4 E 28 37 15 20 1016.2 1015.7 0.0
30/11:00am 26.5 20.3 6.0 27 10.7 ESE 28 35 15 19 1016.6 1016.1 0.0
30/10:30am 25.7 21.0 7.8 32 9.6 E 22 35 12 19 1016.9 1016.4 0.0
30/10:00am 24.1 20.7 10.4 42 7.6 ESE 19 26 10 14 1016.9 1016.4 0.0
30/09:30am 21.7 18.8 11.1 51 5.9 SE 17 20 9 11 1017.0 1016.5 0.0
30/09:00am 19.7 17.6 9.6 52 5.4 ESE 11 17 6 9 1017.2 1016.7 0.0
30/08:43am 18.0 15.1 8.0 52 5.1 ESE 13 15 7 8 1016.9 1016.4 0.0
30/08:33am 17.7 15.0 7.4 51 5.2 ESE 11 13 6 7 1016.8 1016.3 0.0
30/08:30am 17.6 14.9 7.4 51 5.2 SE 11 13 6 7 1016.7 1016.2 0.0
30/08:28am 17.3 14.5 6.8 50 5.2 SE 11 13 6 7 1016.7 1016.2 0.0
30/08:10am 16.1 13.1 6.0 51 4.9 SE 11 15 6 8 1016.5 1016.0 0.0
30/08:00am 15.4 12.6 5.3 51 4.8 SE 9 13 5 7 1016.3 1015.8 0.0
30/07:30am 13.4 10.6 5.3 58 3.8 SE 9 11 5 6 1016.0 1015.5 0.0
30/07:00am 12.4 9.8 4.4 58 3.7 SE 7 9 4 5 1015.5 1015.0 0.0
30/06:30am 12.0 9.5 4.5 60 3.4 ESE 7 9 4 5 1015.3 1014.8 0.0
30/06:00am 12.8 10.3 3.5 53 4.2 SE 6 7 3 4 1014.9 1014.4 0.0
30/05:30am 13.5 11.0 3.6 51 4.5 ESE 6 7 3 4 1014.6 1014.1 0.0
30/05:00am 13.9 11.2 2.8 47 5.0 SE 6 9 3 5 1014.6 1014.1 0.0
30/04:30am 14.5 11.6 2.7 45 5.3 SSE 7 9 4 5 1014.5 1014.0 0.0
30/04:00am 15.3 12.6 2.5 42 5.8 ESE 6 7 3 4 1014.5 1014.0 0.0
30/03:30am 16.2 12.4 1.9 38 6.4 ESE 11 13 6 7 1014.5 1014.0 0.0
30/03:00am 17.1 12.9 1.5 35 7.0 SE 13 15 7 8 1014.6 1014.1 0.0
30/02:30am 15.9 12.2 2.3 40 6.1 SSE 11 13 6 7 1014.6 1014.1 0.0
30/02:00am 16.2 12.4 1.9 38 6.4 SSE 11 13 6 7 1014.8 1014.3 0.0
30/01:30am 17.4 12.8 1.4 34 7.2 SSE 15 19 8 10 1015.1 1014.6 0.0
30/01:00am 19.1 14.4 1.1 30 8.1 SE 15 19 8 10 1015.4 1014.9 0.0
30/12:30am 17.1 12.9 1.5 35 7.0 SSE 13 15 7 8 1015.1 1014.6 0.0
30/12:00am 17.5 13.4 2.3 36 6.9 SE 13 17 7 9 1015.1 1014.6 0.0
 
Date/Time
CST
Temp
°C
App
Temp
°C
Dew
Point
°C
Rel
Hum
%
Delta-T
°C
Wind Press
QNH
hPa
Press
MSL
hPa
Rain since
9am
mm
Dir  Spd
km/h
Gust
km/h
Spd
kts
Gust
kts
29/11:30pm 18.2 14.0 1.7 33 7.5 SE 13 15 7 8 1015.2 1014.7 0.0
29/11:00pm 19.2 15.0 1.7 31 8.0 ESE 13 15 7 8 1015.2 1014.7 0.0
29/10:30pm 17.6 14.0 3.1 38 6.7 SE 11 13 6 7 1015.2 1014.7 0.0
29/10:00pm 18.6 14.5 2.4 34 7.5 SSE 13 13 7 7 1015.2 1014.7 0.0
29/09:30pm 19.2 15.5 2.6 33 7.7 SSE 11 15 6 8 1015.0 1014.5 0.0
29/09:00pm 20.2 16.8 3.9 34 7.8 SE 11 13 6 7 1014.9 1014.4 0.0
29/08:30pm 21.4 17.8 3.1 30 8.7 SSE 11 13 6 7 1014.6 1014.1 0.0
29/08:00pm 22.3 19.3 3.9 30 9.0 SE 9 11 5 6 1014.3 1013.8 0.0
29/07:30pm 24.2 20.5 2.4 24 10.5 SE 11 13 6 7 1014.0 1013.5 0.0
29/07:00pm 25.0 21.6 4.2 26 10.4 S 11 15 6 8 1013.6 1013.1 0.0
29/06:30pm 28.1 24.0 2.3 19 12.7 E 13 17 7 9 1012.9 1012.4 0.0
29/06:00pm 29.4 25.0 2.6 18 13.4 ESE 15 20 8 11 1013.0 1012.5 0.0
29/05:30pm 30.4 26.0 2.6 17 14.0 ESE 15 20 8 11 1012.9 1012.4 0.0
29/05:00pm 30.6 26.1 1.9 16 14.3 ESE 15 24 8 13 1012.9 1012.4 0.0
29/04:30pm 30.6 25.1 1.9 16 14.3 ESE 20 28 11 15 1012.9 1012.4 0.0
29/04:00pm 31.1 26.6 2.3 16 14.5 SE 15 28 8 15 1012.9 1012.4 0.0
29/03:30pm 30.5 25.6 1.9 16 14.2 SE 17 26 9 14 1013.0 1012.5 0.0
29/03:00pm 30.3 24.8 0.8 15 14.4 ESE 19 26 10 14 1013.3 1012.8 0.0
29/02:30pm 30.1 24.6 0.6 15 14.3 SE 19 32 10 17 1013.7 1013.2 0.0
29/02:00pm 29.5 23.4 0.2 15 14.1 SSE 22 37 12 20 1014.2 1013.7 0.0
29/01:30pm 29.2 22.6 -0.1 15 14.0 SE 24 33 13 18 1014.7 1014.2 0.0
29/01:00pm 28.6 22.1 0.3 16 13.5 SE 24 35 13 19 1015.2 1014.7 0.0
29/12:30pm 27.8 21.7 0.5 17 13.0 ESE 22 32 12 17 1015.8 1015.2 0.0
29/12:00pm 27.5 21.8 0.3 17 12.9 SE 20 28 11 15 1016.6 1016.1 0.0
29/11:30am 26.4 19.9 0.2 18 12.3 ESE 24 35 13 19 1017.1 1016.6 0.0
29/11:00am 25.7 18.0 -0.4 18 12.1 E 30 37 16 20 1017.6 1017.1 0.0
29/10:30am 24.4 16.2 -0.7 19 11.4 ESE 32 39 17 21 1017.7 1017.2 0.0
29/10:00am 24.2 16.9 -0.2 20 11.2 E 28 43 15 23 1017.6 1017.1 0.0
29/09:30am 23.3 16.1 0.4 22 10.5 ESE 28 43 15 23 1017.7 1017.2 0.0
29/09:00am 21.9 15.9 1.0 25 9.6 ESE 22 30 12 16 1017.5 1017.0 0.0
29/08:30am 20.7 15.2 2.0 29 8.7 SE 20 26 11 14 1017.2 1016.7 0.0
29/08:00am 19.3 15.6 4.3 37 7.2 SE 13 17 7 9 1017.3 1016.8 0.0
29/07:30am 16.0 13.8 8.0 59 4.0 SSE 9 11 5 6 1017.1 1016.6 0.0
29/07:00am 15.5 13.5 8.7 64 3.5 SSE 9 9 5 5 1016.8 1016.3 0.0
29/06:30am 15.6 13.8 9.3 66 3.3 SE 9 11 5 6 1016.2 1015.7 0.0
29/06:00am 15.9 13.7 9.3 65 3.4 SE 11 15 6 8 1016.0 1015.5 0.0
29/05:30am 16.5 14.3 9.4 63 3.7 SE 11 13 6 7 1016.0 1015.5 0.0
29/05:00am 16.6 14.4 9.5 63 3.7 SE 11 15 6 8 1015.9 1015.3 0.0
29/04:30am 16.3 14.1 9.3 63 3.6 SE 11 13 6 7 1015.8 1015.2 0.0
29/04:00am 16.6 14.4 9.5 63 3.7 ESE 11 15 6 8 1015.9 1015.3 0.0
29/03:30am 15.4 13.4 8.6 64 3.5 SE 9 11 5 6 1015.9 1015.3 0.0
29/03:00am 15.8 13.7 8.3 61 3.8 SSE 9 11 5 6 1016.0 1015.5 0.0
29/02:30am 15.4 12.5 8.2 62 3.6 SSE 13 13 7 7 1016.0 1015.5 0.0
29/02:00am 16.5 14.7 8.0 57 4.3 ESE 7 9 4 5 1015.9 1015.3 0.0
29/01:30am 15.9 13.3 7.9 59 4.0 SSE 11 15 6 8 1016.3 1015.8 0.0
29/01:00am 16.1 13.9 7.8 58 4.2 SE 9 9 5 5 1016.3 1015.8 0.0
29/12:30am 17.0 15.1 7.6 54 4.8 SE 7 9 4 5 1016.5 1016.0 0.0
29/12:00am 17.7 15.1 7.7 52 5.1 SE 11 13 6 7 1016.5 1016.0 0.0
 
Date/Time
CST
Temp
°C
App
Temp
°C
Dew
Point
°C
Rel
Hum
%
Delta-T
°C
Wind Press
QNH
hPa
Press
MSL
hPa
Rain since
9am
mm
Dir  Spd
km/h
Gust
km/h
Spd
kts
Gust
kts
28/11:30pm 17.3 14.8 8.2 55 4.7 SE 11 13 6 7 1016.4 1015.9 0.0
28/11:00pm 17.6 15.0 7.9 53 5.0 SSE 11 11 6 6 1016.3 1015.8 0.0
28/10:30pm 17.8 14.9 8.1 53 5.0 SSE 13 13 7 7 1016.4 1015.9 0.0
28/10:00pm 18.3 15.7 7.7 50 5.4 SSE 11 11 6 6 1016.5 1016.0 0.0
28/09:30pm 19.2 16.9 7.6 47 5.9 SE 9 11 5 6 1016.5 1016.0 0.0
28/09:00pm 20.1 18.2 7.5 44 6.5 ESE 7 9 4 5 1016.3 1015.8 0.0
28/08:30pm 21.2 18.8 7.1 40 7.3 ESE 9 11 5 6 1016.0 1015.5 0.0
28/08:00pm 24.3 21.3 6.1 31 9.4 E 11 13 6 7 1015.8 1015.2 0.0
28/07:30pm 25.4 22.4 6.1 29 10.0 E 11 17 6 9 1015.3 1014.8 0.0
28/07:00pm 26.0 22.5 5.6 27 10.5 E 13 15 7 8 1014.9 1014.4 0.0
28/06:30pm 27.2 23.7 5.5 25 11.3 ESE 13 22 7 12 1014.5 1014.0 0.0
28/06:00pm 28.4 24.0 4.6 22 12.2 ESE 17 24 9 13 1014.3 1013.8 0.0
28/05:30pm 29.1 24.1 4.6 21 12.7 ESE 20 28 11 15 1014.1 1013.6 0.0
28/05:00pm 29.4 24.3 4.1 20 13.0 ESE 20 32 11 17 1013.9 1013.4 0.0
28/04:30pm 29.6 24.6 3.6 19 13.3 ESE 19 30 10 16 1013.8 1013.3 0.0
28/04:00pm 29.5 24.0 4.2 20 13.0 ESE 22 32 12 17 1013.6 1013.1 0.0
28/03:30pm 29.6 24.0 3.6 19 13.3 ESE 22 33 12 18 1013.8 1013.3 0.0
28/03:00pm 29.6 23.9 2.8 18 13.5 ESE 22 32 12 17 1014.0 1013.5 0.0
28/02:30pm 29.6 23.9 2.8 18 13.5 ESE 22 30 12 16 1014.4 1013.9 0.0
28/02:00pm 28.6 22.4 2.0 18 13.1 ESE 24 35 13 19 1014.9 1014.4 0.0
28/01:30pm 28.1 21.5 2.3 19 12.7 SE 26 41 14 22 1015.6 1015.1 0.0
28/01:00pm 27.6 21.7 1.9 19 12.6 SE 22 35 12 19 1016.5 1016.0 0.0
28/12:30pm 26.6 20.2 1.1 19 12.2 ESE 24 35 13 19 1017.0 1016.5 0.0
28/12:00pm 26.1 18.9 0.7 19 12.0 ESE 28 39 15 21 1017.5 1017.0 0.0
28/11:30am 26.0 19.1 -0.1 18 12.1 ESE 26 35 14 19 1017.8 1017.3 0.0
28/11:04am 25.2 17.3 -1.6 17 12.1 SE 30 41 16 22 1018.1 1017.6 0.0
28/11:00am 24.9 16.6 -1.8 17 11.9 SE 32 41 17 22 1018.1 1017.6 0.0
28/10:45am 24.8 17.4 -0.4 19 11.6 E 28 41 15 22 1018.3 1017.8 0.0
28/10:30am 24.2 15.4 -0.9 19 11.3 ESE 35 48 19 26 1018.4 1017.9 0.0
28/10:13am 24.1 15.9 -0.9 19 11.3 ESE 32 43 17 23 1018.5 1018.0 0.0
28/10:00am 23.3 14.9 -0.9 20 10.9 E 33 48 18 26 1018.6 1018.1 0.0
28/09:49am 23.1 15.6 -1.1 20 10.8 ESE 28 46 15 25 1018.7 1018.2 0.0
28/09:43am 22.7 14.9 -0.7 21 10.5 ESE 30 43 16 23 1018.8 1018.3 0.0
28/09:30am 22.3 14.8 -1.1 21 10.4 ESE 28 41 15 22 1019.0 1018.5 0.0
28/09:00am 21.1 14.5 -0.2 24 9.5 SE 24 39 13 21 1019.0 1018.5 0.0
28/08:30am 19.2 14.4 0.3 28 8.4 SE 15 20 8 11 1018.8 1018.3 0.0
28/08:00am 17.0 12.6 0.6 33 7.2 SE 13 17 7 9 1018.6 1018.1 0.0
28/07:30am 14.5 10.3 1.4 41 5.7 SSE 13 15 7 8 1018.3 1017.8 0.0
28/07:00am 13.4 9.8 2.9 49 4.7 SE 11 11 6 6 1018.0 1017.5 0.0
28/06:30am 14.5 11.2 2.4 44 5.4 SE 9 11 5 6 1017.7 1017.2 0.0
28/06:00am 16.0 12.5 1.0 36 6.6 ESE 9 11 5 6 1017.5 1017.0 0.0
28/05:30am 16.7 12.4 0.8 34 7.0 SE 13 15 7 8 1017.2 1016.7 0.0
28/05:00am 16.9 12.3 1.4 35 6.9 SE 15 17 8 9 1017.0 1016.5 0.0
28/04:30am 17.2 12.7 2.0 36 6.9 SE 15 17 8 9 1017.0 1016.5 0.0
28/04:00am 17.0 12.7 3.3 40 6.4 SSE 15 15 8 8 1016.9 1016.4 0.0
28/03:30am 16.9 13.1 3.9 42 6.1 SSE 13 15 7 8 1017.0 1016.5 0.0
28/03:00am 17.6 13.9 4.2 41 6.4 SE 13 15 7 8 1016.9 1016.4 0.0
28/02:30am 17.4 13.7 4.7 43 6.1 SSE 13 13 7 7 1017.0 1016.5 0.0
28/02:00am 18.4 15.1 4.6 40 6.6 SE 11 13 6 7 1017.1 1016.6 0.0
28/01:30am 20.2 16.4 3.9 34 7.8 SE 13 15 7 8 1017.2 1016.7 0.0
28/01:00am 21.3 17.2 4.4 33 8.3 SE 15 19 8 10 1017.2 1016.7 0.0
28/12:30am 21.6 17.9 4.2 32 8.5 SE 13 15 7 8 1017.1 1016.6 0.0
28/12:00am 21.8 17.8 4.8 33 8.4 SE 15 20 8 11 1016.9 1016.4 0.0
 
Date/Time
CST
Temp
°C
App
Temp
°C
Dew
Point
°C
Rel
Hum
%
Delta-T
°C
Wind Press
QNH
hPa
Press
MSL
hPa
Rain since
9am
mm
Dir  Spd
km/h
Gust
km/h
Spd
kts
Gust
kts
27/11:30pm 22.2 18.3 5.2 33 8.5 SE 15 20 8 11 1016.8 1016.3 0.0
27/11:00pm 22.3 18.0 5.3 33 8.5 SE 17 20 9 11 1016.6 1016.1 0.0
27/10:30pm 22.9 18.1 5.8 33 8.7 SE 20 26 11 14 1016.7 1016.2 0.0
27/10:00pm 19.9 16.6 6.3 41 6.8 SE 13 15 7 8 1016.5 1016.0 0.0
27/09:30pm 19.8 17.0 6.9 43 6.6 SE 11 13 6 7 1016.3 1015.8 0.0
27/09:00pm 20.3 17.5 7.0 42 6.8 SE 11 11 6 6 1016.1 1015.6 0.0
27/08:30pm 21.1 18.2 6.6 39 7.4 SE 11 13 6 7 1015.6 1015.1 0.0
27/08:00pm 22.3 19.3 6.1 35 8.2 SE 11 11 6 6 1015.3 1014.8 0.0
27/07:30pm 24.6 21.5 5.4 29 9.8 SE 11 13 6 7 1015.2 1014.7 0.0
27/07:00pm 26.7 23.1 5.1 25 11.1 SE 13 13 7 7 1014.7 1014.2 0.0
27/06:30pm 28.5 24.5 4.7 22 12.3 SE 15 20 8 11 1014.4 1013.9 0.0
27/06:00pm 29.6 24.7 4.3 20 13.0 SE 19 30 10 16 1014.0 1013.5 0.0
27/05:30pm 30.2 24.3 4.0 19 13.5 ESE 24 35 13 19 1013.8 1013.3 0.0
27/05:00pm 30.8 24.6 4.5 19 13.7 SE 26 39 14 21 1013.4 1012.9 0.0

Other Formats:

Comma delimited format used in spreadsheet applications
http://www.bom.gov.au/fwo/IDD60801/IDD60801.94131.axf

JavaScript Object Notation format (JSON) in row-major order
http://www.bom.gov.au/fwo/IDD60801/IDD60801.94131.json